Time;durP1;ratioP1;P1;durP2;ratioP2;P2;SDS_P1;SDS_P2;PMS_P1;PMS_P2;Temp;Humidity;BMP_temperature;BMP_pressure;BME280_temperature;BME280_humidity;BME280_pressure;Samples;Min_cycle;Max_cycle;Signal;HPM_P1;HPM_P2
2023/11/13 00:02:09;;;;;;;13.07;5.83;;;;;;;;;;4331883;32;318016;-85
2023/11/13 00:04:36;;;;;;;10.00;6.40;;;;;;;;;;4313412;32;318451;-83
2023/11/13 00:07:03;;;;;;;11.10;6.93;;;;;;;;;;4330612;32;318037;-82
2023/11/13 00:09:30;;;;;;;10.67;6.77;;;;;;;;;;4321386;32;318055;-82
2023/11/13 00:11:56;;;;;;;8.93;6.40;;;;;;;;;;4330740;32;318377;-84
2023/11/13 00:14:23;;;;;;;12.53;7.00;;;;;;;;;;4320244;32;317312;-81
2023/11/13 00:16:52;;;;;;;9.07;6.40;;;;;;;;;;4323211;32;333171;-83
2023/11/13 00:19:18;;;;;;;12.73;6.90;;;;;;;;;;4330000;32;316897;-85
2023/11/13 00:21:45;;;;;;;13.23;7.10;;;;;;;;;;4303246;32;418366;-84
2023/11/13 00:24:13;;;;;;;14.60;7.03;;;;;;;;;;4330533;32;317937;-85
2023/11/13 00:26:39;;;;;;;12.30;7.60;;;;;;;;;;4312958;32;318247;-79
2023/11/13 00:29:07;;;;;;;10.50;8.17;;;;;;;;;;4327841;32;317938;-81
2023/11/13 00:31:34;;;;;;;13.00;8.20;;;;;;;;;;4321753;32;318543;-81
2023/11/13 00:34:02;;;;;;;12.63;8.47;;;;;;;;;;4317041;32;318147;-82
2023/11/13 00:36:29;;;;;;;11.10;8.27;;;;;;;;;;4305957;32;325715;-82
2023/11/13 00:38:56;;;;;;;13.13;8.07;;;;;;;;;;4330514;32;318353;-83
2023/11/13 00:41:23;;;;;;;11.87;7.70;;;;;;;;;;4321294;33;318337;-80
2023/11/13 00:43:50;;;;;;;10.73;8.07;;;;;;;;;;4330693;33;318083;-80
2023/11/13 00:46:17;;;;;;;14.40;8.13;;;;;;;;;;4318115;33;318326;-80
2023/11/13 00:48:44;;;;;;;11.03;7.97;;;;;;;;;;4293890;33;318135;-82
2023/11/13 00:51:13;;;;;;;10.30;8.10;;;;;;;;;;4331611;33;318211;-84
2023/11/13 00:53:40;;;;;;;12.77;8.97;;;;;;;;;;4320538;32;338745;-84
2023/11/13 00:56:08;;;;;;;11.27;8.70;;;;;;;;;;4334520;32;317966;-86
2023/11/13 00:58:36;;;;;;;18.43;9.00;;;;;;;;;;4316256;32;318601;-83
2023/11/13 01:01:02;;;;;;;15.47;9.20;;;;;;;;;;4333129;32;318011;-82
2023/11/13 01:03:29;;;;;;;14.83;8.40;;;;;;;;;;4323368;32;318037;-83
2023/11/13 01:05:56;;;;;;;16.53;10.23;;;;;;;;;;4333188;32;317946;-81
2023/11/13 01:08:24;;;;;;;14.43;11.00;;;;;;;;;;4324486;32;319323;-82
2023/11/13 01:10:52;;;;;;;16.20;10.17;;;;;;;;;;4329026;32;334777;-82
2023/11/13 01:13:19;;;;;;;17.37;10.27;;;;;;;;;;4333679;32;319286;-80
2023/11/13 01:15:48;;;;;;;20.93;11.00;;;;;;;;;;4313087;32;419054;-84
2023/11/13 01:18:17;;;;;;;20.60;11.73;;;;;;;;;;4333390;32;318906;-82
2023/11/13 01:20:44;;;;;;;16.93;11.40;;;;;;;;;;4314488;32;357431;-82
2023/11/13 01:23:11;;;;;;;18.80;12.10;;;;;;;;;;4331567;32;339924;-83
2023/11/13 01:25:41;;;;;;;21.33;11.10;;;;;;;;;;4323408;32;333756;-82
2023/11/13 01:28:08;;;;;;;17.90;10.90;;;;;;;;;;4333407;32;319402;-80
2023/11/13 01:30:35;;;;;;;20.10;12.03;;;;;;;;;;4315678;32;318870;-81
2023/11/13 01:33:02;;;;;;;21.57;17.50;;;;;;;;;;4333180;32;319191;-80
2023/11/13 01:35:29;;;;;;;27.07;20.60;;;;;;;;;;4317052;32;319176;-80
2023/11/13 01:37:56;;;;;;;29.57;23.37;;;;;;;;;;4337866;32;318955;-80
2023/11/13 01:40:23;;;;;;;27.27;19.40;;;;;;;;;;4325072;32;319272;-78
2023/11/13 01:42:51;;;;;;;21.07;14.93;;;;;;;;;;4328248;32;319042;-83
2023/11/13 01:45:18;;;;;;;24.10;16.17;;;;;;;;;;4336695;32;318860;-82
2023/11/13 01:47:47;;;;;;;21.37;14.60;;;;;;;;;;4324179;32;319052;-83
2023/11/13 01:50:15;;;;;;;24.53;14.17;;;;;;;;;;4332923;32;320106;-81
2023/11/13 01:52:42;;;;;;;18.70;12.57;;;;;;;;;;4315640;32;319760;-82
2023/11/13 01:55:12;;;;;;;18.07;11.87;;;;;;;;;;4317505;33;323979;-82
2023/11/13 01:57:40;;;;;;;22.00;12.27;;;;;;;;;;4304310;33;319614;-81
2023/11/13 02:00:10;;;;;;;20.87;10.93;;;;;;;;;;4317023;33;318951;-81
2023/11/13 02:02:37;;;;;;;16.87;11.27;;;;;;;;;;4300869;32;319811;-81
2023/11/13 02:05:04;;;;;;;17.93;10.77;;;;;;;;;;4316986;32;319663;-80
2023/11/13 02:07:31;;;;;;;20.30;12.97;;;;;;;;;;4307462;32;319804;-80
2023/11/13 02:09:57;;;;;;;18.17;11.77;;;;;;;;;;4315692;32;319628;-82
2023/11/13 02:12:27;;;;;;;19.37;12.67;;;;;;;;;;4304664;32;319841;-81
2023/11/13 02:14:54;;;;;;;20.47;12.47;;;;;;;;;;4318292;32;320100;-81
2023/11/13 02:17:22;;;;;;;19.10;12.80;;;;;;;;;;4307761;32;320018;-82
2023/11/13 02:19:49;;;;;;;24.10;12.60;;;;;;;;;;4318977;32;319484;-83
2023/11/13 02:22:15;;;;;;;23.63;13.10;;;;;;;;;;4317418;32;319868;-79
2023/11/13 02:24:44;;;;;;;15.83;11.83;;;;;;;;;;4308673;32;322238;-80
2023/11/13 02:27:12;;;;;;;15.00;11.30;;;;;;;;;;4331312;32;319364;-82
2023/11/13 02:29:40;;;;;;;21.50;11.40;;;;;;;;;;4315685;32;320121;-79
2023/11/13 02:32:07;;;;;;;20.00;13.13;;;;;;;;;;4331041;32;352950;-82
2023/11/13 02:34:34;;;;;;;27.47;15.73;;;;;;;;;;4314670;32;319626;-82
2023/11/13 02:37:00;;;;;;;20.07;13.50;;;;;;;;;;4317515;32;319441;-81
2023/11/13 02:39:27;;;;;;;17.57;11.97;;;;;;;;;;4307064;32;359331;-83
2023/11/13 02:41:55;;;;;;;18.00;10.43;;;;;;;;;;4318592;32;319659;-83
2023/11/13 02:44:22;;;;;;;17.77;11.97;;;;;;;;;;4308052;32;319437;-85
2023/11/13 02:46:49;;;;;;;17.20;11.17;;;;;;;;;;4310872;32;319948;-79
2023/11/13 02:49:16;;;;;;;17.33;10.67;;;;;;;;;;4317638;32;318863;-81
2023/11/13 02:51:43;;;;;;;16.53;10.90;;;;;;;;;;4322539;32;319572;-81
2023/11/13 02:54:10;;;;;;;17.20;12.37;;;;;;;;;;4331663;32;319584;-80
2023/11/13 02:56:37;;;;;;;22.70;12.27;;;;;;;;;;4314797;32;319723;-81
2023/11/13 02:59:05;;;;;;;17.20;11.13;;;;;;;;;;4330533;32;347960;-80
2023/11/13 03:01:31;;;;;;;15.87;11.30;;;;;;;;;;4319643;32;320033;-84
2023/11/13 03:03:58;;;;;;;14.03;10.00;;;;;;;;;;4332157;32;341042;-82
2023/11/13 03:06:25;;;;;;;17.70;12.37;;;;;;;;;;4322133;32;319739;-83
2023/11/13 03:08:52;;;;;;;19.23;11.87;;;;;;;;;;4328407;32;319568;-83
2023/11/13 03:11:19;;;;;;;18.03;11.33;;;;;;;;;;4332905;32;319460;-83
2023/11/13 03:13:46;;;;;;;22.47;11.77;;;;;;;;;;4315715;32;420159;-83
2023/11/13 03:16:14;;;;;;;17.30;11.63;;;;;;;;;;4330713;32;319817;-82
2023/11/13 03:18:41;;;;;;;16.30;10.00;;;;;;;;;;4313274;32;319568;-81
2023/11/13 03:21:08;;;;;;;18.17;12.17;;;;;;;;;;4328562;32;319688;-81
2023/11/13 03:23:34;;;;;;;15.87;11.80;;;;;;;;;;4321465;32;348795;-80
2023/11/13 03:26:03;;;;;;;18.03;12.93;;;;;;;;;;4332132;32;319624;-81
2023/11/13 03:28:30;;;;;;;14.17;10.43;;;;;;;;;;4314819;32;319402;-82
2023/11/13 03:30:57;;;;;;;18.90;12.13;;;;;;;;;;4332387;32;318438;-82
2023/11/13 03:33:25;;;;;;;16.70;11.57;;;;;;;;;;4320584;32;319729;-82
2023/11/13 03:35:52;;;;;;;14.93;11.00;;;;;;;;;;4332802;32;319459;-83
2023/11/13 03:38:19;;;;;;;20.63;10.33;;;;;;;;;;4331293;32;319840;-84
2023/11/13 03:40:46;;;;;;;13.27;9.37;;;;;;;;;;4311392;32;419273;-84
2023/11/13 03:43:12;;;;;;;17.87;9.10;;;;;;;;;;4331299;32;330285;-81
2023/11/13 03:45:39;;;;;;;14.43;9.37;;;;;;;;;;4322510;32;318081;-81
2023/11/13 03:48:06;;;;;;;15.70;9.63;;;;;;;;;;4331921;32;318152;-79
2023/11/13 03:50:34;;;;;;;13.97;9.77;;;;;;;;;;4302521;32;318220;-84
2023/11/13 03:53:01;;;;;;;12.10;8.00;;;;;;;;;;4332401;32;318097;-85
2023/11/13 03:55:28;;;;;;;9.67;8.10;;;;;;;;;;4322452;32;317850;-83
2023/11/13 03:57:55;;;;;;;11.17;8.67;;;;;;;;;;4330546;32;317370;-84
2023/11/13 04:00:22;;;;;;;14.47;8.63;;;;;;;;;;4320683;32;318888;-83
2023/11/13 04:02:49;;;;;;;13.90;8.30;;;;;;;;;;4326498;32;318230;-86
2023/11/13 04:05:16;;;;;;;11.67;7.70;;;;;;;;;;4332552;32;318522;-82
2023/11/13 04:07:45;;;;;;;12.90;8.50;;;;;;;;;;4320869;32;318329;-88
2023/11/13 04:10:13;;;;;;;10.27;7.03;;;;;;;;;;4332502;32;317971;-82
2023/11/13 04:12:40;;;;;;;12.10;7.93;;;;;;;;;;4314780;32;318506;-83
2023/11/13 04:15:08;;;;;;;12.27;6.87;;;;;;;;;;4331995;32;318329;-81
2023/11/13 04:17:35;;;;;;;14.77;6.77;;;;;;;;;;4322148;32;318728;-81
2023/11/13 04:20:05;;;;;;;8.97;6.80;;;;;;;;;;4331347;32;318903;-83
2023/11/13 04:22:32;;;;;;;9.23;5.97;;;;;;;;;;4306850;32;317099;-86
2023/11/13 04:25:01;;;;;;;7.80;5.73;;;;;;;;;;4330894;32;317591;-81
2023/11/13 04:27:28;;;;;;;8.80;5.80;;;;;;;;;;4319472;32;344820;-82
2023/11/13 04:29:55;;;;;;;10.53;6.63;;;;;;;;;;4320693;32;317667;-84
2023/11/13 04:32:22;;;;;;;13.87;10.40;;;;;;;;;;4309497;32;318307;-83
2023/11/13 04:34:49;;;;;;;21.27;10.93;;;;;;;;;;4322948;32;318958;-82
2023/11/13 04:37:16;;;;;;;14.67;9.23;;;;;;;;;;4328844;32;319735;-82
2023/11/13 04:39:43;;;;;;;16.93;10.27;;;;;;;;;;4306152;33;318568;-82
2023/11/13 04:42:11;;;;;;;20.77;13.27;;;;;;;;;;4321220;33;318989;-82
2023/11/13 04:44:38;;;;;;;25.17;11.67;;;;;;;;;;4313187;33;319450;-85
2023/11/13 04:47:06;;;;;;;28.33;15.57;;;;;;;;;;4322138;33;319430;-83
2023/11/13 04:49:35;;;;;;;39.57;17.77;;;;;;;;;;4305355;33;319529;-82
2023/11/13 04:52:01;;;;;;;44.63;20.60;;;;;;;;;;4317114;33;319456;-81
2023/11/13 04:54:28;;;;;;;45.03;20.03;;;;;;;;;;4302684;33;319284;-86
2023/11/13 04:56:57;;;;;;;46.40;21.43;;;;;;;;;;4315799;33;319687;-81
2023/11/13 04:59:25;;;;;;;53.70;23.30;;;;;;;;;;4308106;33;319490;-82
2023/11/13 05:01:53;;;;;;;36.37;16.80;;;;;;;;;;4330306;33;319615;-83
2023/11/13 05:04:20;;;;;;;31.97;17.07;;;;;;;;;;4321659;33;319707;-82
2023/11/13 05:06:46;;;;;;;33.17;16.37;;;;;;;;;;4296892;33;420112;-81
2023/11/13 05:09:14;;;;;;;16.13;10.17;;;;;;;;;;4316361;33;319781;-83
2023/11/13 05:11:41;;;;;;;18.47;10.17;;;;;;;;;;4305635;33;319828;-84
2023/11/13 05:14:08;;;;;;;11.87;7.83;;;;;;;;;;4316849;33;319420;-83
2023/11/13 05:16:37;;;;;;;14.40;8.23;;;;;;;;;;4300576;33;318440;-83
2023/11/13 05:19:04;;;;;;;21.23;10.33;;;;;;;;;;4315638;32;318336;-84
2023/11/13 05:21:31;;;;;;;19.67;10.57;;;;;;;;;;4306991;33;319951;-82
2023/11/13 05:23:59;;;;;;;18.43;11.17;;;;;;;;;;4308686;33;319058;-83
2023/11/13 05:26:27;;;;;;;23.93;12.10;;;;;;;;;;4317959;33;319133;-85
2023/11/13 05:28:55;;;;;;;24.60;13.57;;;;;;;;;;4326523;33;319386;-82
2023/11/13 05:31:22;;;;;;;28.37;14.83;;;;;;;;;;4319993;33;319418;-85
2023/11/13 05:33:50;;;;;;;25.70;14.37;;;;;;;;;;4331249;33;319750;-83
2023/11/13 05:36:17;;;;;;;30.10;18.63;;;;;;;;;;4328453;33;319079;-82
2023/11/13 05:38:44;;;;;;;36.77;18.70;;;;;;;;;;4313668;32;419642;-83
2023/11/13 05:41:11;;;;;;;23.27;13.13;;;;;;;;;;4338664;32;319495;-87
2023/11/13 05:43:38;;;;;;;14.37;8.97;;;;;;;;;;4326881;32;319231;-81
2023/11/13 05:46:06;;;;;;;15.73;9.13;;;;;;;;;;4335314;32;318331;-82
2023/11/13 05:48:32;;;;;;;13.87;9.03;;;;;;;;;;4317258;32;318093;-83
2023/11/13 05:51:01;;;;;;;15.77;10.50;;;;;;;;;;4332496;32;317583;-81
2023/11/13 05:53:28;;;;;;;24.50;16.00;;;;;;;;;;4323146;32;319200;-81
2023/11/13 05:55:54;;;;;;;24.00;16.87;;;;;;;;;;4331704;32;319097;-82
2023/11/13 05:58:22;;;;;;;34.70;20.20;;;;;;;;;;4321122;32;319636;-83
2023/11/13 06:00:49;;;;;;;32.13;18.97;;;;;;;;;;4325680;32;319510;-82
2023/11/13 06:03:16;;;;;;;34.80;22.17;;;;;;;;;;4332687;32;319730;-83
2023/11/13 06:05:45;;;;;;;124.97;61.00;;;;;;;;;;4320557;32;341122;-81
2023/11/13 06:08:13;;;;;;;61.63;34.23;;;;;;;;;;4331132;32;320254;-82
2023/11/13 06:10:40;;;;;;;56.77;31.70;;;;;;;;;;4315698;32;319266;-82
2023/11/13 06:13:07;;;;;;;55.57;29.53;;;;;;;;;;4331100;32;319492;-82
2023/11/13 06:15:40;;;;;;;48.03;28.10;;;;;;;;;;4322557;32;319796;-82
2023/11/13 06:18:07;;;;;;;50.77;25.80;;;;;;;;;;4332467;32;319644;-82
2023/11/13 06:20:34;;;;;;;44.77;24.37;;;;;;;;;;4312336;32;319276;-84
2023/11/13 06:23:02;;;;;;;47.60;23.43;;;;;;;;;;4331816;32;319561;-83
2023/11/13 06:25:30;;;;;;;43.77;23.53;;;;;;;;;;4321640;32;319372;-85
2023/11/13 06:27:57;;;;;;;35.73;19.97;;;;;;;;;;4317841;32;319110;-90
2023/11/13 06:30:24;;;;;;;42.17;20.20;;;;;;;;;;4307013;33;324406;-89
2023/11/13 06:32:51;;;;;;;29.77;17.10;;;;;;;;;;4325563;32;319249;-81
2023/11/13 06:35:18;;;;;;;29.10;18.03;;;;;;;;;;4332644;32;319565;-84
2023/11/13 06:37:45;;;;;;;30.70;17.47;;;;;;;;;;4318016;32;420334;-83
2023/11/13 06:40:16;;;;;;;27.63;17.30;;;;;;;;;;4330595;32;319348;-82
2023/11/13 06:42:45;;;;;;;30.87;17.17;;;;;;;;;;4314099;32;319526;-82
2023/11/13 06:45:12;;;;;;;27.67;15.80;;;;;;;;;;4329681;32;319482;-83
2023/11/13 06:47:40;;;;;;;29.03;18.80;;;;;;;;;;4313501;32;319513;-86
2023/11/13 06:50:08;;;;;;;40.10;22.97;;;;;;;;;;4329770;32;319720;-89
2023/11/13 06:52:35;;;;;;;40.40;23.70;;;;;;;;;;4314307;32;318722;-88
2023/11/13 06:55:01;;;;;;;32.63;22.73;;;;;;;;;;4329206;32;319180;-91
2023/11/13 06:57:28;;;;;;;33.80;22.60;;;;;;;;;;4320769;32;318819;-87
2023/11/13 06:59:56;;;;;;;37.87;26.10;;;;;;;;;;4332325;32;324885;-86
2023/11/13 07:02:26;;;;;;;36.87;23.50;;;;;;;;;;4316665;32;358978;-83
2023/11/13 07:04:53;;;;;;;23.33;14.73;;;;;;;;;;4320587;32;319452;-86
2023/11/13 07:07:20;;;;;;;17.60;10.87;;;;;;;;;;4309042;32;353404;-84
2023/11/13 07:09:47;;;;;;;14.37;9.70;;;;;;;;;;4328306;32;319316;-83
2023/11/13 07:12:15;;;;;;;22.00;12.20;;;;;;;;;;4327652;32;317540;-86
2023/11/13 07:14:41;;;;;;;20.10;13.67;;;;;;;;;;4309472;32;319383;-85
2023/11/13 07:17:09;;;;;;;21.47;12.97;;;;;;;;;;4322078;32;318570;-87
2023/11/13 07:19:37;;;;;;;25.03;16.17;;;;;;;;;;4306338;33;319311;-85
2023/11/13 07:22:06;;;;;;;24.27;15.43;;;;;;;;;;4302857;33;319667;-85
2023/11/13 07:24:36;;;;;;;23.57;15.10;;;;;;;;;;4300034;33;328556;-85
2023/11/13 07:27:04;;;;;;;22.13;14.30;;;;;;;;;;4319244;32;319209;-85
2023/11/13 07:29:31;;;;;;;23.03;15.50;;;;;;;;;;4305145;32;319345;-86
2023/11/13 07:31:58;;;;;;;29.00;17.50;;;;;;;;;;4329896;32;319595;-85
2023/11/13 07:34:26;;;;;;;24.80;15.50;;;;;;;;;;4319612;32;319552;-85
2023/11/13 07:36:53;;;;;;;21.07;14.07;;;;;;;;;;4325217;32;319697;-89
2023/11/13 07:39:24;;;;;;;18.33;12.53;;;;;;;;;;4311625;32;319627;-86
2023/11/13 07:41:51;;;;;;;25.57;12.83;;;;;;;;;;4331829;32;319047;-89
2023/11/13 07:44:19;;;;;;;21.17;14.33;;;;;;;;;;4330959;32;319784;-86
2023/11/13 07:46:46;;;;;;;17.67;11.30;;;;;;;;;;4323718;32;319363;-87
2023/11/13 07:49:14;;;;;;;19.80;12.03;;;;;;;;;;4329193;32;319652;-89
2023/11/13 07:51:43;;;;;;;13.90;10.60;;;;;;;;;;4321143;32;319423;-89
2023/11/13 07:54:10;;;;;;;20.87;12.53;;;;;;;;;;4331207;32;319232;-89
2023/11/13 07:56:36;;;;;;;14.00;10.53;;;;;;;;;;4289634;32;319775;-83
2023/11/13 07:59:07;;;;;;;19.10;11.10;;;;;;;;;;4326064;32;319591;-85
2023/11/13 08:01:34;;;;;;;12.70;9.03;;;;;;;;;;4316235;32;319566;-81
2023/11/13 08:04:01;;;;;;;15.80;10.77;;;;;;;;;;4328035;32;319441;-82
2023/11/13 08:06:28;;;;;;;13.83;9.37;;;;;;;;;;4313076;32;319216;-80
2023/11/13 08:08:57;;;;;;;18.87;9.10;;;;;;;;;;4313217;32;349497;-81
2023/11/13 08:11:23;;;;;;;16.00;9.53;;;;;;;;;;4322405;32;318430;-81
2023/11/13 08:13:50;;;;;;;14.97;9.73;;;;;;;;;;4329519;32;317606;-80
2023/11/13 08:16:18;;;;;;;15.80;9.00;;;;;;;;;;4329928;32;318432;-82
2023/11/13 08:18:45;;;;;;;10.67;6.60;;;;;;;;;;4310782;32;417908;-82
2023/11/13 08:21:13;;;;;;;8.83;6.87;;;;;;;;;;4330232;32;318349;-82
2023/11/13 08:23:40;;;;;;;14.33;8.03;;;;;;;;;;4320454;32;317447;-81
2023/11/13 08:26:08;;;;;;;12.40;7.63;;;;;;;;;;4329311;32;317644;-81
2023/11/13 08:28:35;;;;;;;13.23;8.13;;;;;;;;;;4310923;32;352663;-82
2023/11/13 08:31:03;;;;;;;9.67;8.03;;;;;;;;;;4329616;32;318156;-84
2023/11/13 08:33:30;;;;;;;8.30;6.07;;;;;;;;;;4320488;32;317393;-81
2023/11/13 08:35:59;;;;;;;10.77;6.10;;;;;;;;;;4329443;32;317219;-81
2023/11/13 08:38:26;;;;;;;11.87;7.80;;;;;;;;;;4321185;32;318777;-81
2023/11/13 08:40:55;;;;;;;13.77;8.00;;;;;;;;;;4326186;32;351347;-82
2023/11/13 08:43:25;;;;;;;15.27;8.33;;;;;;;;;;4319470;32;318152;-81
2023/11/13 08:45:53;;;;;;;10.97;6.83;;;;;;;;;;4329809;33;318164;-83
2023/11/13 08:48:21;;;;;;;8.37;6.80;;;;;;;;;;4318176;33;318270;-82
2023/11/13 08:50:48;;;;;;;13.97;9.20;;;;;;;;;;4322840;33;316976;-83
2023/11/13 08:53:16;;;;;;;10.47;7.50;;;;;;;;;;4330856;33;318503;-85
2023/11/13 08:55:43;;;;;;;10.00;7.37;;;;;;;;;;4319436;33;318396;-82
2023/11/13 08:58:10;;;;;;;10.43;6.73;;;;;;;;;;4330114;33;318718;-83
2023/11/13 09:00:43;;;;;;;8.17;5.97;;;;;;;;;;4312708;33;318266;-82
2023/11/13 09:03:11;;;;;;;7.10;5.77;;;;;;;;;;4328334;33;317698;-87
2023/11/13 09:05:39;;;;;;;8.43;5.57;;;;;;;;;;4319993;33;317487;-80
2023/11/13 09:08:08;;;;;;;8.70;6.17;;;;;;;;;;4329585;33;317334;-82
2023/11/13 09:10:36;;;;;;;8.77;5.80;;;;;;;;;;4312641;32;317218;-83
2023/11/13 09:13:05;;;;;;;8.43;5.90;;;;;;;;;;4328843;32;317235;-82
2023/11/13 09:15:34;;;;;;;8.47;5.40;;;;;;;;;;4321686;32;317141;-82
2023/11/13 09:18:05;;;;;;;10.53;6.17;;;;;;;;;;4333654;32;317640;-84
2023/11/13 09:20:33;;;;;;;6.60;5.30;;;;;;;;;;4312648;32;318324;-83
2023/11/13 09:23:02;;;;;;;12.47;7.67;;;;;;;;;;4332308;32;317436;-83
2023/11/13 09:25:31;;;;;;;8.07;4.30;;;;;;;;;;4322242;32;318460;-82
2023/11/13 09:27:58;;;;;;;7.03;4.40;;;;;;;;;;4332179;32;317340;-82
2023/11/13 09:30:26;;;;;;;8.33;3.90;;;;;;;;;;4323539;32;317483;-82
2023/11/13 09:32:53;;;;;;;7.50;3.87;;;;;;;;;;4325526;32;317316;-84
2023/11/13 09:35:22;;;;;;;6.20;3.87;;;;;;;;;;4322248;32;317376;-83
2023/11/13 09:37:51;;;;;;;6.57;4.03;;;;;;;;;;4333079;32;317291;-83
2023/11/13 09:40:19;;;;;;;6.17;4.03;;;;;;;;;;4332939;32;324507;-82
2023/11/13 09:42:50;;;;;;;6.93;4.40;;;;;;;;;;4310700;32;416421;-82
2023/11/13 09:45:18;;;;;;;5.93;4.13;;;;;;;;;;4333146;32;317264;-81
2023/11/13 09:47:45;;;;;;;7.10;3.90;;;;;;;;;;4324178;32;416319;-85
2023/11/13 09:50:19;;;;;;;6.77;4.20;;;;;;;;;;4337302;32;317200;-85
2023/11/13 09:52:50;;;;;;;7.37;4.83;;;;;;;;;;4310968;32;417629;-84
2023/11/13 09:55:20;;;;;;;7.43;5.67;;;;;;;;;;4330842;32;317837;-82
2023/11/13 09:57:48;;;;;;;13.10;6.17;;;;;;;;;;4317358;32;416713;-84
2023/11/13 10:00:18;;;;;;;10.07;5.40;;;;;;;;;;4331472;32;318192;-84
2023/11/13 10:02:46;;;;;;;9.37;5.93;;;;;;;;;;4312495;32;419423;-86
2023/11/13 10:05:15;;;;;;;9.63;7.07;;;;;;;;;;4333101;32;317693;-86
2023/11/13 10:07:47;;;;;;;9.53;6.67;;;;;;;;;;4321982;32;323645;-86
2023/11/13 10:10:21;;;;;;;13.10;7.27;;;;;;;;;;4330775;32;316972;-83
2023/11/13 10:12:49;;;;;;;8.37;5.50;;;;;;;;;;4312714;32;419751;-83
2023/11/13 10:15:17;;;;;;;8.70;5.70;;;;;;;;;;4331200;32;357494;-82
2023/11/13 10:17:46;;;;;;;9.77;5.10;;;;;;;;;;4319351;32;415858;-83
2023/11/13 10:20:17;;;;;;;8.60;5.27;;;;;;;;;;4331603;32;317689;-87
2023/11/13 10:22:45;;;;;;;6.00;4.57;;;;;;;;;;4311717;32;317710;-80
2023/11/13 10:25:12;;;;;;;7.93;5.03;;;;;;;;;;4316531;33;317252;-83
2023/11/13 10:27:44;;;;;;;5.60;4.20;;;;;;;;;;4305790;33;317537;-81
2023/11/13 10:30:12;;;;;;;9.77;5.40;;;;;;;;;;4314999;33;317301;-81
2023/11/13 10:32:39;;;;;;;7.60;4.57;;;;;;;;;;4296311;33;317360;-81
2023/11/13 10:35:09;;;;;;;6.97;4.30;;;;;;;;;;4313980;33;317283;-81
2023/11/13 10:37:38;;;;;;;7.13;4.70;;;;;;;;;;4304723;33;317635;-81
2023/11/13 10:40:11;;;;;;;8.47;4.07;;;;;;;;;;4302175;33;318905;-86
2023/11/13 10:42:38;;;;;;;10.90;4.23;;;;;;;;;;4303825;32;317300;-82
2023/11/13 10:45:12;;;;;;;9.30;4.23;;;;;;;;;;4330983;32;317820;-81
2023/11/13 10:47:49;;;;;;;6.87;4.23;;;;;;;;;;4319808;32;317255;-81
2023/11/13 10:50:21;;;;;;;8.52;3.83;;;;;;;;;;4316064;32;317461;-81
2023/11/13 10:52:49;;;;;;;9.83;3.60;;;;;;;;;;4294732;33;416451;-80
2023/11/13 10:55:18;;;;;;;4.87;3.17;;;;;;;;;;4314465;33;316820;-80
2023/11/13 10:57:45;;;;;;;3.75;2.58;;;;;;;;;;4299603;33;417946;-81
2023/11/13 11:00:15;;;;;;;6.37;2.97;;;;;;;;;;4316519;32;317264;-81
2023/11/13 11:02:45;;;;;;;11.70;3.57;;;;;;;;;;4300343;32;317454;-82
2023/11/13 11:05:21;;;;;;;11.23;3.72;;;;;;;;;;4320704;32;336992;-81
2023/11/13 11:07:51;;;;;;;5.20;3.03;;;;;;;;;;4269226;33;389511;-82
2023/11/13 11:10:24;;;;;;;4.60;2.62;;;;;;;;;;4310871;33;317587;-81
2023/11/13 11:12:59;;;;;;;3.65;2.20;;;;;;;;;;4291255;33;418012;-81
2023/11/13 11:16:06;;;;;;;9.68;2.95;;;;;;;;;;4298865;32;316636;-81
2023/11/13 11:18:41;;;;;;;5.07;2.53;;;;;;;;;;4295392;32;317550;-80
2023/11/13 11:21:21;;;;;;;4.87;3.53;;;;;;;;;;4328901;32;317282;-81
2023/11/13 11:23:55;;;;;;;5.60;2.42;;;;;;;;;;4309648;32;418762;-81
2023/11/13 11:26:22;;;;;;;4.68;2.65;;;;;;;;;;4318935;32;317699;-81
2023/11/13 11:28:52;;;;;;;6.20;2.75;;;;;;;;;;4321923;32;330347;-84
2023/11/13 11:31:48;;;;;;;4.57;2.53;;;;;;;;;;4320814;32;317608;-82
2023/11/13 11:34:23;;;;;;;4.53;2.37;;;;;;;;;;4322022;32;316885;-81
2023/11/13 11:36:53;;;;;;;3.67;2.17;;;;;;;;;;4310119;32;418506;-81
2023/11/13 11:39:22;;;;;;;3.55;2.12;;;;;;;;;;4322060;32;317279;-83
2023/11/13 11:41:51;;;;;;;3.17;1.90;;;;;;;;;;4323764;32;317382;-82
2023/11/13 11:44:21;;;;;;;7.77;2.73;;;;;;;;;;4317622;32;316906;-82
2023/11/13 11:46:49;;;;;;;4.97;2.67;;;;;;;;;;4310773;32;417178;-83
2023/11/13 11:49:24;;;;;;;6.22;2.83;;;;;;;;;;4329287;32;317040;-83
2023/11/13 11:51:53;;;;;;;7.37;2.33;;;;;;;;;;4318772;32;415946;-83
2023/11/13 11:54:21;;;;;;;3.42;1.85;;;;;;;;;;4320424;32;317185;-80
2023/11/13 11:56:59;;;;;;;2.50;1.70;;;;;;;;;;4309178;32;317244;-80
2023/11/13 11:59:27;;;;;;;3.07;1.90;;;;;;;;;;4316501;32;317292;-81
2023/11/13 12:01:54;;;;;;;3.60;1.97;;;;;;;;;;4328874;32;317252;-82
2023/11/13 12:04:23;;;;;;;2.33;1.70;;;;;;;;;;4320317;32;317456;-82
2023/11/13 12:06:51;;;;;;;4.07;2.47;;;;;;;;;;4321817;32;316665;-82
2023/11/13 12:09:19;;;;;;;2.33;1.60;;;;;;;;;;4328654;32;317622;-83
2023/11/13 12:11:46;;;;;;;3.07;1.90;;;;;;;;;;4303625;32;418387;-82
2023/11/13 12:14:14;;;;;;;3.63;1.70;;;;;;;;;;4324787;32;317054;-82
2023/11/13 12:16:40;;;;;;;2.53;1.80;;;;;;;;;;4313091;32;317620;-82
2023/11/13 12:19:09;;;;;;;3.13;2.07;;;;;;;;;;4330755;32;317546;-81
2023/11/13 12:21:41;;;;;;;7.70;1.50;;;;;;;;;;4319210;32;317829;-83
2023/11/13 12:24:08;;;;;;;3.10;2.00;;;;;;;;;;4318271;32;317504;-84
2023/11/13 12:26:38;;;;;;;3.40;1.77;;;;;;;;;;4303168;32;317413;-82
2023/11/13 12:29:14;;;;;;;2.83;1.70;;;;;;;;;;4328205;32;317618;-84
2023/11/13 12:31:41;;;;;;;3.00;2.07;;;;;;;;;;4320160;32;317476;-82
2023/11/13 12:34:08;;;;;;;3.93;2.17;;;;;;;;;;4329572;32;317321;-82
2023/11/13 12:36:36;;;;;;;4.23;1.50;;;;;;;;;;4302152;32;317618;-83
2023/11/13 12:39:07;;;;;;;3.27;1.80;;;;;;;;;;4331854;32;317354;-81
2023/11/13 12:41:34;;;;;;;5.23;1.40;;;;;;;;;;4307646;33;317520;-83
2023/11/13 12:44:01;;;;;;;3.00;2.00;;;;;;;;;;4325955;32;317936;-84
2023/11/13 12:46:30;;;;;;;6.20;1.97;;;;;;;;;;4307856;33;317310;-83
2023/11/13 12:48:58;;;;;;;5.93;1.97;;;;;;;;;;4325754;32;317365;-83
2023/11/13 12:51:28;;;;;;;2.83;1.47;;;;;;;;;;4327292;32;317158;-83
2023/11/13 12:53:57;;;;;;;3.73;1.70;;;;;;;;;;4338187;32;317162;-87
2023/11/13 12:56:25;;;;;;;3.07;1.70;;;;;;;;;;4328398;32;317315;-86
2023/11/13 12:58:54;;;;;;;3.33;1.90;;;;;;;;;;4330481;32;317667;-85
2023/11/13 13:01:21;;;;;;;2.53;1.70;;;;;;;;;;4318809;32;317332;-87
2023/11/13 13:03:49;;;;;;;3.23;1.70;;;;;;;;;;4325828;32;317423;-83
2023/11/13 13:06:16;;;;;;;4.13;2.10;;;;;;;;;;4339242;32;317509;-86
2023/11/13 13:08:43;;;;;;;2.40;1.60;;;;;;;;;;4323331;32;316798;-85
2023/11/13 13:11:10;;;;;;;2.63;1.93;;;;;;;;;;4338645;32;318132;-81
2023/11/13 13:13:38;;;;;;;4.03;1.23;;;;;;;;;;4326847;32;317004;-84
2023/11/13 13:16:06;;;;;;;8.07;1.70;;;;;;;;;;4334682;32;317302;-80
2023/11/13 13:18:36;;;;;;;3.77;1.53;;;;;;;;;;4318245;32;316678;-89
2023/11/13 13:21:03;;;;;;;4.07;1.97;;;;;;;;;;4334747;32;317627;-85
2023/11/13 13:23:30;;;;;;;3.13;1.20;;;;;;;;;;4328479;32;317627;-83
2023/11/13 13:26:02;;;;;;;4.97;1.60;;;;;;;;;;4334764;32;317301;-81
2023/11/13 13:28:29;;;;;;;4.47;1.67;;;;;;;;;;4308857;32;318230;-85
2023/11/13 13:30:58;;;;;;;2.17;1.43;;;;;;;;;;4337311;32;317242;-80
2023/11/13 13:33:25;;;;;;;5.77;1.77;;;;;;;;;;4339068;32;345690;-82
2023/11/13 13:35:52;;;;;;;5.87;1.60;;;;;;;;;;4336592;32;317272;-80
2023/11/13 13:38:19;;;;;;;2.87;2.23;;;;;;;;;;4325488;32;318600;-82
2023/11/13 13:40:46;;;;;;;3.00;1.80;;;;;;;;;;4326387;32;317624;-83
2023/11/13 13:43:13;;;;;;;12.03;2.10;;;;;;;;;;4339118;32;317567;-83
2023/11/13 13:45:45;;;;;;;5.80;1.60;;;;;;;;;;4334034;32;318652;-83
2023/11/13 13:48:14;;;;;;;5.70;1.83;;;;;;;;;;4337884;32;316660;-85
2023/11/13 13:50:42;;;;;;;3.53;1.80;;;;;;;;;;4326899;32;324907;-86
2023/11/13 13:53:14;;;;;;;2.47;2.00;;;;;;;;;;4343967;32;316242;-83
2023/11/13 13:55:42;;;;;;;3.00;1.63;;;;;;;;;;4334492;32;340113;-83
2023/11/13 13:58:10;;;;;;;3.40;2.17;;;;;;;;;;4334755;32;317296;-85
2023/11/13 14:00:39;;;;;;;3.20;2.20;;;;;;;;;;4305103;32;317552;-84
2023/11/13 14:03:08;;;;;;;6.03;2.30;;;;;;;;;;4332523;32;316781;-84
2023/11/13 14:05:37;;;;;;;7.28;2.22;;;;;;;;;;4323002;32;320494;-83
2023/11/13 14:08:05;;;;;;;4.17;2.30;;;;;;;;;;4331796;32;317236;-84
2023/11/13 14:10:34;;;;;;;6.93;2.17;;;;;;;;;;4310844;32;317096;-84
2023/11/13 14:13:04;;;;;;;6.30;2.33;;;;;;;;;;4331041;32;316823;-85
2023/11/13 14:15:31;;;;;;;3.77;2.00;;;;;;;;;;4316783;32;317281;-84
2023/11/13 14:17:58;;;;;;;9.60;3.13;;;;;;;;;;4332787;32;317301;-84
2023/11/13 14:20:25;;;;;;;5.40;2.43;;;;;;;;;;4322263;32;317570;-84
2023/11/13 14:22:56;;;;;;;5.93;2.90;;;;;;;;;;4325060;32;316680;-84